sensor_id;sensor_type;location;lat;lon;timestamp;temperature;humidity
816;DHT22;25928;51.062;13.752;2022-07-23T00:01:23;23.30;1.00
816;DHT22;25928;51.062;13.752;2022-07-23T00:03:49;23.30;1.00
816;DHT22;25928;51.062;13.752;2022-07-23T00:06:15;23.30;1.00
816;DHT22;25928;51.062;13.752;2022-07-23T00:08:41;23.20;1.00
816;DHT22;25928;51.062;13.752;2022-07-23T00:11:07;23.30;1.00
816;DHT22;25928;51.062;13.752;2022-07-23T00:13:32;23.20;1.00
816;DHT22;25928;51.062;13.752;2022-07-23T00:15:58;23.10;1.00
816;DHT22;25928;51.062;13.752;2022-07-23T00:18:23;23.10;1.00
816;DHT22;25928;51.062;13.752;2022-07-23T00:20:49;23.10;1.00
816;DHT22;25928;51.062;13.752;2022-07-23T00:23:16;23.10;1.00
816;DHT22;25928;51.062;13.752;2022-07-23T00:25:41;23.00;1.00
816;DHT22;25928;51.062;13.752;2022-07-23T00:28:07;23.00;1.00
816;DHT22;25928;51.062;13.752;2022-07-23T00:30:33;23.00;1.00
816;DHT22;25928;51.062;13.752;2022-07-23T00:33:00;23.00;1.00
816;DHT22;25928;51.062;13.752;2022-07-23T00:35:28;23.00;1.00
816;DHT22;25928;51.062;13.752;2022-07-23T00:37:55;22.90;1.00
816;DHT22;25928;51.062;13.752;2022-07-23T00:40:21;22.90;1.00
816;DHT22;25928;51.062;13.752;2022-07-23T00:42:46;22.90;1.00
816;DHT22;25928;51.062;13.752;2022-07-23T00:45:12;22.90;1.00
816;DHT22;25928;51.062;13.752;2022-07-23T00:47:38;22.80;1.00
816;DHT22;25928;51.062;13.752;2022-07-23T00:50:05;22.80;1.00
816;DHT22;25928;51.062;13.752;2022-07-23T00:52:32;22.90;1.00
816;DHT22;25928;51.062;13.752;2022-07-23T00:54:58;22.80;1.00
816;DHT22;25928;51.062;13.752;2022-07-23T00:57:23;23.00;1.00
816;DHT22;25928;51.062;13.752;2022-07-23T00:59:49;23.10;1.00
816;DHT22;25928;51.062;13.752;2022-07-23T01:02:15;23.10;1.00
816;DHT22;25928;51.062;13.752;2022-07-23T01:04:40;23.00;1.00
816;DHT22;25928;51.062;13.752;2022-07-23T01:07:07;23.00;1.00
816;DHT22;25928;51.062;13.752;2022-07-23T01:09:33;23.00;1.00
816;DHT22;25928;51.062;13.752;2022-07-23T01:11:59;22.90;1.00
816;DHT22;25928;51.062;13.752;2022-07-23T01:14:25;22.80;1.00
816;DHT22;25928;51.062;13.752;2022-07-23T01:19:17;22.80;1.00
816;DHT22;25928;51.062;13.752;2022-07-23T01:21:49;22.80;1.00
816;DHT22;25928;51.062;13.752;2022-07-23T01:24:15;22.90;1.00
816;DHT22;25928;51.062;13.752;2022-07-23T01:26:43;22.70;1.00
816;DHT22;25928;51.062;13.752;2022-07-23T01:29:09;22.70;1.00
816;DHT22;25928;51.062;13.752;2022-07-23T01:31:36;22.60;1.00
816;DHT22;25928;51.062;13.752;2022-07-23T01:34:01;22.60;1.00
816;DHT22;25928;51.062;13.752;2022-07-23T01:38:53;22.50;1.00
816;DHT22;25928;51.062;13.752;2022-07-23T01:41:19;22.30;1.00
816;DHT22;25928;51.062;13.752;2022-07-23T01:43:45;22.30;1.00
816;DHT22;25928;51.062;13.752;2022-07-23T01:46:11;22.10;1.00
816;DHT22;25928;51.062;13.752;2022-07-23T01:48:37;22.20;1.00
816;DHT22;25928;51.062;13.752;2022-07-23T01:51:06;22.30;1.00
816;DHT22;25928;51.062;13.752;2022-07-23T01:53:32;22.30;1.00
816;DHT22;25928;51.062;13.752;2022-07-23T01:55:58;22.20;1.00
816;DHT22;25928;51.062;13.752;2022-07-23T01:58:25;22.10;1.00
816;DHT22;25928;51.062;13.752;2022-07-23T02:00:51;22.10;1.00
816;DHT22;25928;51.062;13.752;2022-07-23T02:03:17;22.10;1.00
816;DHT22;25928;51.062;13.752;2022-07-23T02:05:42;22.10;1.00
816;DHT22;25928;51.062;13.752;2022-07-23T02:08:08;21.80;1.00
816;DHT22;25928;51.062;13.752;2022-07-23T02:10:33;21.80;1.00
816;DHT22;25928;51.062;13.752;2022-07-23T02:12:59;21.70;1.00
816;DHT22;25928;51.062;13.752;2022-07-23T02:15:25;21.70;1.00
816;DHT22;25928;51.062;13.752;2022-07-23T02:17:50;21.50;1.00
816;DHT22;25928;51.062;13.752;2022-07-23T02:20:16;21.50;1.00
816;DHT22;25928;51.062;13.752;2022-07-23T02:22:42;21.60;1.00
816;DHT22;25928;51.062;13.752;2022-07-23T02:25:08;21.60;1.00
816;DHT22;25928;51.062;13.752;2022-07-23T02:27:34;21.50;1.00
816;DHT22;25928;51.062;13.752;2022-07-23T02:30:00;21.50;1.00
816;DHT22;25928;51.062;13.752;2022-07-23T02:32:26;21.40;1.00
816;DHT22;25928;51.062;13.752;2022-07-23T02:34:52;21.50;1.00
816;DHT22;25928;51.062;13.752;2022-07-23T02:37:17;21.50;1.00
816;DHT22;25928;51.062;13.752;2022-07-23T02:39:43;21.50;1.00
816;DHT22;25928;51.062;13.752;2022-07-23T02:42:09;21.70;1.00
816;DHT22;25928;51.062;13.752;2022-07-23T02:44:35;21.90;1.00
816;DHT22;25928;51.062;13.752;2022-07-23T02:47:01;21.90;1.00
816;DHT22;25928;51.062;13.752;2022-07-23T02:49:26;21.80;1.00
816;DHT22;25928;51.062;13.752;2022-07-23T02:51:52;21.90;1.00
816;DHT22;25928;51.062;13.752;2022-07-23T02:54:18;21.80;1.00
816;DHT22;25928;51.062;13.752;2022-07-23T02:56:44;21.80;1.00
816;DHT22;25928;51.062;13.752;2022-07-23T02:59:09;21.70;1.00
816;DHT22;25928;51.062;13.752;2022-07-23T03:01:36;21.70;1.00
816;DHT22;25928;51.062;13.752;2022-07-23T03:04:01;21.70;1.00
816;DHT22;25928;51.062;13.752;2022-07-23T03:08:53;21.70;1.00
816;DHT22;25928;51.062;13.752;2022-07-23T03:11:18;21.80;1.00
816;DHT22;25928;51.062;13.752;2022-07-23T03:13:44;21.80;1.00
816;DHT22;25928;51.062;13.752;2022-07-23T03:16:10;21.90;1.00
816;DHT22;25928;51.062;13.752;2022-07-23T03:18:36;21.90;1.00
816;DHT22;25928;51.062;13.752;2022-07-23T03:21:01;22.00;1.00
816;DHT22;25928;51.062;13.752;2022-07-23T03:23:27;22.10;1.00
816;DHT22;25928;51.062;13.752;2022-07-23T03:25:53;22.10;1.00
816;DHT22;25928;51.062;13.752;2022-07-23T03:28:19;22.10;1.00
816;DHT22;25928;51.062;13.752;2022-07-23T03:30:46;22.10;1.00
816;DHT22;25928;51.062;13.752;2022-07-23T03:33:18;22.20;1.00
816;DHT22;25928;51.062;13.752;2022-07-23T03:35:45;22.20;1.00
816;DHT22;25928;51.062;13.752;2022-07-23T03:38:11;22.30;1.00
816;DHT22;25928;51.062;13.752;2022-07-23T03:40:37;22.10;1.00
816;DHT22;25928;51.062;13.752;2022-07-23T03:43:02;22.00;1.00
816;DHT22;25928;51.062;13.752;2022-07-23T03:45:28;22.10;1.00
816;DHT22;25928;51.062;13.752;2022-07-23T03:47:54;22.10;1.00
816;DHT22;25928;51.062;13.752;2022-07-23T03:50:20;22.10;1.00
816;DHT22;25928;51.062;13.752;2022-07-23T03:52:46;22.30;1.00
816;DHT22;25928;51.062;13.752;2022-07-23T03:55:11;22.20;1.00
816;DHT22;25928;51.062;13.752;2022-07-23T03:57:37;22.10;1.00
816;DHT22;25928;51.062;13.752;2022-07-23T04:00:05;22.20;1.00
816;DHT22;25928;51.062;13.752;2022-07-23T04:02:32;22.30;1.00
816;DHT22;25928;51.062;13.752;2022-07-23T04:04:57;22.20;1.00
816;DHT22;25928;51.062;13.752;2022-07-23T04:07:23;22.20;1.00
816;DHT22;25928;51.062;13.752;2022-07-23T04:09:49;22.30;1.00
816;DHT22;25928;51.062;13.752;2022-07-23T04:12:14;22.40;1.00
816;DHT22;25928;51.062;13.752;2022-07-23T04:14:40;22.50;1.00
816;DHT22;25928;51.062;13.752;2022-07-23T04:17:06;22.50;1.00
816;DHT22;25928;51.062;13.752;2022-07-23T04:19:31;22.50;1.00
816;DHT22;25928;51.062;13.752;2022-07-23T04:21:57;22.60;1.00
816;DHT22;25928;51.062;13.752;2022-07-23T04:24:23;22.60;1.00
816;DHT22;25928;51.062;13.752;2022-07-23T04:26:49;22.60;1.00
816;DHT22;25928;51.062;13.752;2022-07-23T04:29:14;22.50;1.00
816;DHT22;25928;51.062;13.752;2022-07-23T04:31:40;22.40;1.00
816;DHT22;25928;51.062;13.752;2022-07-23T04:34:05;22.10;1.00
816;DHT22;25928;51.062;13.752;2022-07-23T04:36:31;22.60;1.00
816;DHT22;25928;51.062;13.752;2022-07-23T04:38:57;22.60;1.00
816;DHT22;25928;51.062;13.752;2022-07-23T04:41:22;22.70;1.00
816;DHT22;25928;51.062;13.752;2022-07-23T04:43:48;22.60;1.00
816;DHT22;25928;51.062;13.752;2022-07-23T04:46:13;22.50;1.00
816;DHT22;25928;51.062;13.752;2022-07-23T04:48:39;22.40;1.00
816;DHT22;25928;51.062;13.752;2022-07-23T04:51:08;22.40;1.00
816;DHT22;25928;51.062;13.752;2022-07-23T04:53:34;22.40;1.00
816;DHT22;25928;51.062;13.752;2022-07-23T04:55:59;22.50;1.00
816;DHT22;25928;51.062;13.752;2022-07-23T04:58:25;22.40;1.00
816;DHT22;25928;51.062;13.752;2022-07-23T05:00:51;22.40;1.00
816;DHT22;25928;51.062;13.752;2022-07-23T05:03:17;22.30;1.00
816;DHT22;25928;51.062;13.752;2022-07-23T05:05:42;22.50;1.00
816;DHT22;25928;51.062;13.752;2022-07-23T05:08:08;22.50;1.00
816;DHT22;25928;51.062;13.752;2022-07-23T05:10:34;22.50;1.00
816;DHT22;25928;51.062;13.752;2022-07-23T05:12:59;22.70;1.00
816;DHT22;25928;51.062;13.752;2022-07-23T05:15:25;22.80;1.00
816;DHT22;25928;51.062;13.752;2022-07-23T05:17:51;22.50;1.00
816;DHT22;25928;51.062;13.752;2022-07-23T05:20:16;22.60;1.00
816;DHT22;25928;51.062;13.752;2022-07-23T05:22:42;22.50;1.00
816;DHT22;25928;51.062;13.752;2022-07-23T05:25:08;22.50;1.00
816;DHT22;25928;51.062;13.752;2022-07-23T05:27:34;22.60;1.00
816;DHT22;25928;51.062;13.752;2022-07-23T05:29:59;22.70;1.00
816;DHT22;25928;51.062;13.752;2022-07-23T05:32:25;22.80;1.00
816;DHT22;25928;51.062;13.752;2022-07-23T05:34:51;22.70;1.00
816;DHT22;25928;51.062;13.752;2022-07-23T05:37:17;22.60;1.00
816;DHT22;25928;51.062;13.752;2022-07-23T05:39:42;22.60;1.00
816;DHT22;25928;51.062;13.752;2022-07-23T05:42:08;22.60;1.00
816;DHT22;25928;51.062;13.752;2022-07-23T05:44:34;22.60;1.00
816;DHT22;25928;51.062;13.752;2022-07-23T05:47:01;22.60;1.00
816;DHT22;25928;51.062;13.752;2022-07-23T05:49:27;22.50;1.00
816;DHT22;25928;51.062;13.752;2022-07-23T05:51:52;22.40;1.00
816;DHT22;25928;51.062;13.752;2022-07-23T05:54:18;22.10;1.00
816;DHT22;25928;51.062;13.752;2022-07-23T05:56:44;22.10;1.00
816;DHT22;25928;51.062;13.752;2022-07-23T05:59:09;22.00;1.00
816;DHT22;25928;51.062;13.752;2022-07-23T06:01:37;21.90;1.00
816;DHT22;25928;51.062;13.752;2022-07-23T06:04:03;21.90;1.00
816;DHT22;25928;51.062;13.752;2022-07-23T06:06:28;21.80;1.00
816;DHT22;25928;51.062;13.752;2022-07-23T06:08:54;21.50;1.00
816;DHT22;25928;51.062;13.752;2022-07-23T06:11:19;21.50;1.00
816;DHT22;25928;51.062;13.752;2022-07-23T06:13:45;21.40;1.00
816;DHT22;25928;51.062;13.752;2022-07-23T06:16:11;21.30;1.00
816;DHT22;25928;51.062;13.752;2022-07-23T06:18:36;21.30;1.00
816;DHT22;25928;51.062;13.752;2022-07-23T06:21:02;21.40;1.00
816;DHT22;25928;51.062;13.752;2022-07-23T06:23:27;21.40;1.00
816;DHT22;25928;51.062;13.752;2022-07-23T06:25:53;21.40;1.00
816;DHT22;25928;51.062;13.752;2022-07-23T06:28:18;21.50;1.00
816;DHT22;25928;51.062;13.752;2022-07-23T06:30:44;21.40;1.00
816;DHT22;25928;51.062;13.752;2022-07-23T06:33:10;21.40;1.00
816;DHT22;25928;51.062;13.752;2022-07-23T06:35:37;21.50;1.00
816;DHT22;25928;51.062;13.752;2022-07-23T06:38:02;21.70;1.00
816;DHT22;25928;51.062;13.752;2022-07-23T06:40:28;21.80;1.00
816;DHT22;25928;51.062;13.752;2022-07-23T06:42:53;21.80;1.00
816;DHT22;25928;51.062;13.752;2022-07-23T06:45:19;21.80;1.00
816;DHT22;25928;51.062;13.752;2022-07-23T06:47:44;22.00;1.00
816;DHT22;25928;51.062;13.752;2022-07-23T06:50:10;22.00;1.00
816;DHT22;25928;51.062;13.752;2022-07-23T06:52:36;21.80;1.00
816;DHT22;25928;51.062;13.752;2022-07-23T06:55:01;21.90;1.00
816;DHT22;25928;51.062;13.752;2022-07-23T06:57:27;22.00;1.00
816;DHT22;25928;51.062;13.752;2022-07-23T06:59:53;22.20;1.00
816;DHT22;25928;51.062;13.752;2022-07-23T07:02:18;22.20;1.00
816;DHT22;25928;51.062;13.752;2022-07-23T07:04:44;22.20;1.00
816;DHT22;25928;51.062;13.752;2022-07-23T07:07:10;22.60;1.00
816;DHT22;25928;51.062;13.752;2022-07-23T07:09:37;22.60;1.00
816;DHT22;25928;51.062;13.752;2022-07-23T07:12:03;22.40;1.00
816;DHT22;25928;51.062;13.752;2022-07-23T07:14:29;22.40;1.00
816;DHT22;25928;51.062;13.752;2022-07-23T07:16:55;22.30;1.00
816;DHT22;25928;51.062;13.752;2022-07-23T07:19:20;22.30;1.00
816;DHT22;25928;51.062;13.752;2022-07-23T07:21:46;22.50;1.00
816;DHT22;25928;51.062;13.752;2022-07-23T07:24:12;22.50;1.00
816;DHT22;25928;51.062;13.752;2022-07-23T07:26:37;22.40;1.00
816;DHT22;25928;51.062;13.752;2022-07-23T07:29:04;22.60;1.00
816;DHT22;25928;51.062;13.752;2022-07-23T07:31:30;23.00;1.00
816;DHT22;25928;51.062;13.752;2022-07-23T07:36:22;23.00;1.00
816;DHT22;25928;51.062;13.752;2022-07-23T07:38:48;23.10;1.00
816;DHT22;25928;51.062;13.752;2022-07-23T07:41:14;23.60;1.00
816;DHT22;25928;51.062;13.752;2022-07-23T07:43:39;23.70;1.00
816;DHT22;25928;51.062;13.752;2022-07-23T07:46:08;23.80;1.00
816;DHT22;25928;51.062;13.752;2022-07-23T07:48:39;23.90;1.00
816;DHT22;25928;51.062;13.752;2022-07-23T07:51:07;24.10;1.00
816;DHT22;25928;51.062;13.752;2022-07-23T07:53:33;24.60;1.00
816;DHT22;25928;51.062;13.752;2022-07-23T07:58:25;25.30;1.00
816;DHT22;25928;51.062;13.752;2022-07-23T08:00:50;25.30;1.00
816;DHT22;25928;51.062;13.752;2022-07-23T08:03:16;25.60;1.00
816;DHT22;25928;51.062;13.752;2022-07-23T08:05:43;25.70;1.00
816;DHT22;25928;51.062;13.752;2022-07-23T08:08:09;25.80;1.00
816;DHT22;25928;51.062;13.752;2022-07-23T08:10:40;25.60;1.00
816;DHT22;25928;51.062;13.752;2022-07-23T08:13:06;26.00;1.00
816;DHT22;25928;51.062;13.752;2022-07-23T08:15:31;26.10;1.00
816;DHT22;25928;51.062;13.752;2022-07-23T08:17:57;26.20;1.00
816;DHT22;25928;51.062;13.752;2022-07-23T08:20:24;26.50;1.00
816;DHT22;25928;51.062;13.752;2022-07-23T08:22:57;27.00;1.00
816;DHT22;25928;51.062;13.752;2022-07-23T08:25:35;26.70;1.00
816;DHT22;25928;51.062;13.752;2022-07-23T08:28:03;26.60;1.00
816;DHT22;25928;51.062;13.752;2022-07-23T08:30:30;26.50;1.00
816;DHT22;25928;51.062;13.752;2022-07-23T08:33:05;26.40;1.00
816;DHT22;25928;51.062;13.752;2022-07-23T08:35:44;26.50;1.00
816;DHT22;25928;51.062;13.752;2022-07-23T08:38:13;26.10;1.00
816;DHT22;25928;51.062;13.752;2022-07-23T08:40:44;26.30;1.00
816;DHT22;25928;51.062;13.752;2022-07-23T08:43:13;26.80;1.00
816;DHT22;25928;51.062;13.752;2022-07-23T08:45:41;26.70;1.00
816;DHT22;25928;51.062;13.752;2022-07-23T08:48:18;26.60;1.00
816;DHT22;25928;51.062;13.752;2022-07-23T08:50:46;27.00;1.00
816;DHT22;25928;51.062;13.752;2022-07-23T08:53:13;26.90;1.00
816;DHT22;25928;51.062;13.752;2022-07-23T08:55:39;26.90;1.00
816;DHT22;25928;51.062;13.752;2022-07-23T08:58:05;27.80;1.00
816;DHT22;25928;51.062;13.752;2022-07-23T09:00:32;27.80;1.00
816;DHT22;25928;51.062;13.752;2022-07-23T09:02:58;28.00;1.00
816;DHT22;25928;51.062;13.752;2022-07-23T09:05:24;27.80;1.00
816;DHT22;25928;51.062;13.752;2022-07-23T09:08:20;28.10;1.00
816;DHT22;25928;51.062;13.752;2022-07-23T09:13:32;27.90;1.00
816;DHT22;25928;51.062;13.752;2022-07-23T09:16:18;27.90;1.00
816;DHT22;25928;51.062;13.752;2022-07-23T09:18:59;27.90;1.00
816;DHT22;25928;51.062;13.752;2022-07-23T09:21:25;27.70;1.00
816;DHT22;25928;51.062;13.752;2022-07-23T09:26:46;27.40;1.00
816;DHT22;25928;51.062;13.752;2022-07-23T09:29:20;27.20;1.00
816;DHT22;25928;51.062;13.752;2022-07-23T09:36:53;27.90;1.00
816;DHT22;25928;51.062;13.752;2022-07-23T09:39:31;27.90;1.00
816;DHT22;25928;51.062;13.752;2022-07-23T09:41:57;27.90;1.00
816;DHT22;25928;51.062;13.752;2022-07-23T09:44:23;28.00;1.00
816;DHT22;25928;51.062;13.752;2022-07-23T09:46:50;27.70;1.00
816;DHT22;25928;51.062;13.752;2022-07-23T09:49:21;27.60;1.00
816;DHT22;25928;51.062;13.752;2022-07-23T09:54:29;27.60;1.00
816;DHT22;25928;51.062;13.752;2022-07-23T09:57:01;27.70;1.00
816;DHT22;25928;51.062;13.752;2022-07-23T09:59:32;27.70;1.00
816;DHT22;25928;51.062;13.752;2022-07-23T10:01:59;28.70;1.00
816;DHT22;25928;51.062;13.752;2022-07-23T10:04:27;29.00;1.00
816;DHT22;25928;51.062;13.752;2022-07-23T10:06:55;28.90;1.00
816;DHT22;25928;51.062;13.752;2022-07-23T10:09:29;28.90;1.00
816;DHT22;25928;51.062;13.752;2022-07-23T10:11:57;28.70;1.00
816;DHT22;25928;51.062;13.752;2022-07-23T10:14:27;28.70;1.00
816;DHT22;25928;51.062;13.752;2022-07-23T10:16:56;28.80;1.00
816;DHT22;25928;51.062;13.752;2022-07-23T10:19:23;28.00;1.00
816;DHT22;25928;51.062;13.752;2022-07-23T10:22:12;28.00;1.00
816;DHT22;25928;51.062;13.752;2022-07-23T10:30:09;28.40;1.00
816;DHT22;25928;51.062;13.752;2022-07-23T10:35:43;28.40;1.00
816;DHT22;25928;51.062;13.752;2022-07-23T10:38:37;28.30;1.00
816;DHT22;25928;51.062;13.752;2022-07-23T10:41:07;27.80;1.00
816;DHT22;25928;51.062;13.752;2022-07-23T10:43:33;27.90;1.00
816;DHT22;25928;51.062;13.752;2022-07-23T10:46:35;28.20;1.00
816;DHT22;25928;51.062;13.752;2022-07-23T10:49:29;27.90;1.00
816;DHT22;25928;51.062;13.752;2022-07-23T10:54:40;27.40;1.00
816;DHT22;25928;51.062;13.752;2022-07-23T10:57:07;27.40;1.00
816;DHT22;25928;51.062;13.752;2022-07-23T11:02:34;27.90;1.00
816;DHT22;25928;51.062;13.752;2022-07-23T11:05:14;28.10;1.00
816;DHT22;25928;51.062;13.752;2022-07-23T11:16:06;28.30;1.00
816;DHT22;25928;51.062;13.752;2022-07-23T11:34:40;27.70;1.00
816;DHT22;25928;51.062;13.752;2022-07-23T11:37:11;27.70;1.00
816;DHT22;25928;51.062;13.752;2022-07-23T11:39:38;27.90;1.00
816;DHT22;25928;51.062;13.752;2022-07-23T11:42:06;27.90;1.00
816;DHT22;25928;51.062;13.752;2022-07-23T11:44:39;27.70;1.00
816;DHT22;25928;51.062;13.752;2022-07-23T11:47:09;27.30;1.00
816;DHT22;25928;51.062;13.752;2022-07-23T11:49:35;27.50;1.00
816;DHT22;25928;51.062;13.752;2022-07-23T11:52:11;27.70;1.00
816;DHT22;25928;51.062;13.752;2022-07-23T11:57:19;27.90;1.00
816;DHT22;25928;51.062;13.752;2022-07-23T11:59:47;28.00;1.00
816;DHT22;25928;51.062;13.752;2022-07-23T12:02:15;28.60;1.00
816;DHT22;25928;51.062;13.752;2022-07-23T12:04:45;28.80;1.00
816;DHT22;25928;51.062;13.752;2022-07-23T12:07:36;28.60;1.00
816;DHT22;25928;51.062;13.752;2022-07-23T12:10:09;28.50;1.00
816;DHT22;25928;51.062;13.752;2022-07-23T12:12:39;27.70;1.00
816;DHT22;25928;51.062;13.752;2022-07-23T12:15:06;27.50;1.00
816;DHT22;25928;51.062;13.752;2022-07-23T12:17:35;27.50;1.00
816;DHT22;25928;51.062;13.752;2022-07-23T12:20:02;26.70;1.00
816;DHT22;25928;51.062;13.752;2022-07-23T12:22:59;26.50;1.00
816;DHT22;25928;51.062;13.752;2022-07-23T12:25:26;26.60;1.00
816;DHT22;25928;51.062;13.752;2022-07-23T12:30:48;26.90;1.00
816;DHT22;25928;51.062;13.752;2022-07-23T12:33:24;27.10;1.00
816;DHT22;25928;51.062;13.752;2022-07-23T12:35:51;27.40;1.00
816;DHT22;25928;51.062;13.752;2022-07-23T12:38:20;27.50;1.00
816;DHT22;25928;51.062;13.752;2022-07-23T12:40:50;28.00;1.00
816;DHT22;25928;51.062;13.752;2022-07-23T12:43:24;27.90;1.00
816;DHT22;25928;51.062;13.752;2022-07-23T12:51:08;28.20;1.00
816;DHT22;25928;51.062;13.752;2022-07-23T12:53:38;28.40;1.00
816;DHT22;25928;51.062;13.752;2022-07-23T12:56:13;28.80;1.00
816;DHT22;25928;51.062;13.752;2022-07-23T12:58:44;28.80;1.00
816;DHT22;25928;51.062;13.752;2022-07-23T13:04:05;27.90;1.00
816;DHT22;25928;51.062;13.752;2022-07-23T13:06:34;27.70;1.00
816;DHT22;25928;51.062;13.752;2022-07-23T13:09:01;27.80;1.00
816;DHT22;25928;51.062;13.752;2022-07-23T13:11:27;27.90;1.00
816;DHT22;25928;51.062;13.752;2022-07-23T13:13:53;28.30;1.00
816;DHT22;25928;51.062;13.752;2022-07-23T13:16:18;28.60;1.00
816;DHT22;25928;51.062;13.752;2022-07-23T13:18:44;28.70;1.00
816;DHT22;25928;51.062;13.752;2022-07-23T13:21:10;28.60;1.00
816;DHT22;25928;51.062;13.752;2022-07-23T13:26:03;27.60;1.00
816;DHT22;25928;51.062;13.752;2022-07-23T13:28:35;27.60;1.00
816;DHT22;25928;51.062;13.752;2022-07-23T13:31:01;27.20;1.00
816;DHT22;25928;51.062;13.752;2022-07-23T13:33:26;27.40;1.00
816;DHT22;25928;51.062;13.752;2022-07-23T13:35:52;28.20;1.00
816;DHT22;25928;51.062;13.752;2022-07-23T13:38:19;28.60;1.00
816;DHT22;25928;51.062;13.752;2022-07-23T13:40:46;28.30;1.00
816;DHT22;25928;51.062;13.752;2022-07-23T13:43:14;28.30;1.00
816;DHT22;25928;51.062;13.752;2022-07-23T13:45:41;28.40;1.00
816;DHT22;25928;51.062;13.752;2022-07-23T13:48:11;28.60;1.00
816;DHT22;25928;51.062;13.752;2022-07-23T13:50:38;28.50;1.00
816;DHT22;25928;51.062;13.752;2022-07-23T13:53:09;28.50;1.00
816;DHT22;25928;51.062;13.752;2022-07-23T13:55:38;28.30;1.00
816;DHT22;25928;51.062;13.752;2022-07-23T13:58:05;28.20;1.00
816;DHT22;25928;51.062;13.752;2022-07-23T14:00:31;28.30;1.00
816;DHT22;25928;51.062;13.752;2022-07-23T14:02:58;28.40;1.00
816;DHT22;25928;51.062;13.752;2022-07-23T14:05:24;28.50;1.00
816;DHT22;25928;51.062;13.752;2022-07-23T14:07:50;28.50;1.00
816;DHT22;25928;51.062;13.752;2022-07-23T14:10:18;28.40;1.00
816;DHT22;25928;51.062;13.752;2022-07-23T14:12:45;28.40;1.00
816;DHT22;25928;51.062;13.752;2022-07-23T14:15:11;28.40;1.00
816;DHT22;25928;51.062;13.752;2022-07-23T14:17:39;28.30;1.00
816;DHT22;25928;51.062;13.752;2022-07-23T14:20:06;28.40;1.00
816;DHT22;25928;51.062;13.752;2022-07-23T14:22:32;28.40;1.00
816;DHT22;25928;51.062;13.752;2022-07-23T14:24:57;28.30;1.00
816;DHT22;25928;51.062;13.752;2022-07-23T14:27:24;28.30;1.00
816;DHT22;25928;51.062;13.752;2022-07-23T14:29:50;27.80;1.00
816;DHT22;25928;51.062;13.752;2022-07-23T14:32:16;27.80;1.00
816;DHT22;25928;51.062;13.752;2022-07-23T14:34:41;27.80;1.00
816;DHT22;25928;51.062;13.752;2022-07-23T14:37:07;27.90;1.00
816;DHT22;25928;51.062;13.752;2022-07-23T14:39:33;28.40;1.00
816;DHT22;25928;51.062;13.752;2022-07-23T14:44:24;28.90;1.00
816;DHT22;25928;51.062;13.752;2022-07-23T14:49:16;31.50;1.00
816;DHT22;25928;51.062;13.752;2022-07-23T14:51:42;31.60;1.00
816;DHT22;25928;51.062;13.752;2022-07-23T14:54:08;31.90;1.00
816;DHT22;25928;51.062;13.752;2022-07-23T14:56:34;31.90;1.00
816;DHT22;25928;51.062;13.752;2022-07-23T14:59:02;31.00;1.00
816;DHT22;25928;51.062;13.752;2022-07-23T15:01:28;30.20;1.00
816;DHT22;25928;51.062;13.752;2022-07-23T15:03:53;29.80;1.00
816;DHT22;25928;51.062;13.752;2022-07-23T15:06:19;29.30;1.00
816;DHT22;25928;51.062;13.752;2022-07-23T15:08:45;28.70;1.00
816;DHT22;25928;51.062;13.752;2022-07-23T15:11:10;28.50;1.00
816;DHT22;25928;51.062;13.752;2022-07-23T15:13:37;28.50;1.00
816;DHT22;25928;51.062;13.752;2022-07-23T15:16:06;28.50;1.00
816;DHT22;25928;51.062;13.752;2022-07-23T15:18:32;28.30;1.00
816;DHT22;25928;51.062;13.752;2022-07-23T15:20:58;28.40;1.00
816;DHT22;25928;51.062;13.752;2022-07-23T15:23:23;29.20;1.00
816;DHT22;25928;51.062;13.752;2022-07-23T15:25:49;29.70;1.00
816;DHT22;25928;51.062;13.752;2022-07-23T15:28:15;29.20;1.00
816;DHT22;25928;51.062;13.752;2022-07-23T15:30:40;29.30;1.00
816;DHT22;25928;51.062;13.752;2022-07-23T15:33:07;29.10;1.00
816;DHT22;25928;51.062;13.752;2022-07-23T15:35:33;28.80;1.00
816;DHT22;25928;51.062;13.752;2022-07-23T15:40:25;27.90;1.00
816;DHT22;25928;51.062;13.752;2022-07-23T15:45:17;29.40;1.00
816;DHT22;25928;51.062;13.752;2022-07-23T15:47:42;27.70;1.00
816;DHT22;25928;51.062;13.752;2022-07-23T15:50:08;27.70;1.00
816;DHT22;25928;51.062;13.752;2022-07-23T15:52:35;27.40;1.00
816;DHT22;25928;51.062;13.752;2022-07-23T15:57:27;28.00;1.00
816;DHT22;25928;51.062;13.752;2022-07-23T15:59:52;28.20;1.00
816;DHT22;25928;51.062;13.752;2022-07-23T16:02:21;28.20;1.00
816;DHT22;25928;51.062;13.752;2022-07-23T16:04:47;28.40;1.00
816;DHT22;25928;51.062;13.752;2022-07-23T16:07:13;28.30;1.00
816;DHT22;25928;51.062;13.752;2022-07-23T16:09:38;28.00;1.00
816;DHT22;25928;51.062;13.752;2022-07-23T16:12:04;27.70;1.00
816;DHT22;25928;51.062;13.752;2022-07-23T16:14:30;28.00;1.00
816;DHT22;25928;51.062;13.752;2022-07-23T16:16:55;28.30;1.00
816;DHT22;25928;51.062;13.752;2022-07-23T16:19:21;29.20;1.00
816;DHT22;25928;51.062;13.752;2022-07-23T16:21:46;29.30;1.00
816;DHT22;25928;51.062;13.752;2022-07-23T16:24:12;30.70;1.00
816;DHT22;25928;51.062;13.752;2022-07-23T16:26:38;32.10;1.00
816;DHT22;25928;51.062;13.752;2022-07-23T16:29:03;32.40;1.00
816;DHT22;25928;51.062;13.752;2022-07-23T16:31:30;32.30;1.00
816;DHT22;25928;51.062;13.752;2022-07-23T16:33:57;31.10;1.00
816;DHT22;25928;51.062;13.752;2022-07-23T16:38:48;28.60;1.00
816;DHT22;25928;51.062;13.752;2022-07-23T16:41:14;28.50;1.00
816;DHT22;25928;51.062;13.752;2022-07-23T16:43:39;27.70;1.00
816;DHT22;25928;51.062;13.752;2022-07-23T16:46:05;27.30;1.00
816;DHT22;25928;51.062;13.752;2022-07-23T16:48:32;27.10;1.00
816;DHT22;25928;51.062;13.752;2022-07-23T16:50:58;27.20;1.00
816;DHT22;25928;51.062;13.752;2022-07-23T16:53:23;27.20;1.00
816;DHT22;25928;51.062;13.752;2022-07-23T16:55:49;27.20;1.00
816;DHT22;25928;51.062;13.752;2022-07-23T16:58:14;27.50;1.00
816;DHT22;25928;51.062;13.752;2022-07-23T17:00:40;27.50;1.00
816;DHT22;25928;51.062;13.752;2022-07-23T17:03:06;27.60;1.00
816;DHT22;25928;51.062;13.752;2022-07-23T17:05:31;28.00;1.00
816;DHT22;25928;51.062;13.752;2022-07-23T17:07:57;28.60;1.00
816;DHT22;25928;51.062;13.752;2022-07-23T17:10:24;29.20;1.00
816;DHT22;25928;51.062;13.752;2022-07-23T17:12:50;29.30;1.00
816;DHT22;25928;51.062;13.752;2022-07-23T17:15:17;30.80;1.00
816;DHT22;25928;51.062;13.752;2022-07-23T17:17:42;30.20;1.00
816;DHT22;25928;51.062;13.752;2022-07-23T17:20:09;29.30;1.00
816;DHT22;25928;51.062;13.752;2022-07-23T17:22:34;28.60;1.00
816;DHT22;25928;51.062;13.752;2022-07-23T17:25:01;27.80;1.00
816;DHT22;25928;51.062;13.752;2022-07-23T17:27:27;27.50;1.00
816;DHT22;25928;51.062;13.752;2022-07-23T17:29:53;27.40;1.00
816;DHT22;25928;51.062;13.752;2022-07-23T17:32:19;27.40;1.00
816;DHT22;25928;51.062;13.752;2022-07-23T17:34:46;27.30;1.00
816;DHT22;25928;51.062;13.752;2022-07-23T17:37:11;27.50;1.00